• Join FlightAware (Why Join?)
  • Login
  • US Flag 
04:46AM EDT


 

Airport Tracker/Info


-or-


 

Live Flight TrackerFlight Track Log ✈ AVN21 ✈ 29-Oct-2013 ✈ YBBN / BNE - NVSS / SON

Flight Track Log - Related Links

Times and Time Zones

All times are in EDT time to prevent confusion due to time zone crossing. See the AVN21 flight status page for this flight to view local times or setup timezone preferences in your user account.

Time Position Orientation Groundspeed Altitude Reporting Facility
EDT Latitude Longitude Course Direction KTS MPH feet Rate Location/Type
08:56PM -27.3962 153.1220 70° East 100 115  Level FlightAware ADS-B (EKCH / CPH)
08:56PM -27.3858 153.1280 27° Northeast 153 176 100 1,200 Climbing FlightAware ADS-B (EKCH / CPH)
08:57PM -27.3725 153.1357 27° Northeast 154 177 800 1,800 Climbing FlightAware ADS-B (EKCH / CPH)
08:57PM -27.3598 153.1447 32° Northeast 168 193 1,300 1,320 Climbing FlightAware ADS-B (EKCH / CPH)
08:57PM -27.3475 153.1570 42° Northeast 193 222 1,700 1,020 Climbing FlightAware ADS-B (EKCH / CPH)
08:58PM -27.3325 153.1721 42° Northeast 216 249 2,000 1,620 Climbing FlightAware ADS-B (EKCH / CPH)
08:58PM -27.3208 153.1859 46° Northeast 224 258 2,800 2,400 Climbing FlightAware ADS-B (EKCH / CPH)
08:58PM -27.3145 153.1990 62° Northeast 233 268 3,200 1,800 Climbing FlightAware ADS-B (EKCH / CPH)
08:59PM -27.3070 153.2237 71° East 256 295 3,700 1,200 Climbing FlightAware ADS-B (EKCH / CPH)
08:59PM -27.2997 153.2502 73° East 280 322 4,000 900 Climbing FlightAware ADS-B (EKCH / CPH)
08:59PM -27.2913 153.2799 72° East 303 349 4,300 900 Climbing FlightAware ADS-B (EKCH / CPH)
09:00PM -27.2826 153.3108 72° East 323 372 4,600 1,320 Climbing FlightAware ADS-B (EKCH / CPH)
09:00PM -27.2735 153.3433 73° East 335 386 5,200 1,920 Climbing FlightAware ADS-B (EKCH / CPH)
09:00PM -27.2647 153.3749 73° East 337 388 5,900 2,220 Climbing FlightAware ADS-B (EKCH / CPH)
09:01PM -27.2547 153.4104 72° East 341 392 6,700 2,220 Climbing FlightAware ADS-B (EKCH / CPH)
09:01PM -27.2451 153.4440 72° East 349 402 7,400 1,920 Climbing FlightAware ADS-B (EKCH / CPH)
09:01PM -27.2355 153.4777 72° East 354 407 8,000 1,920 Climbing FlightAware ADS-B (EKCH / CPH)
09:02PM -27.2247 153.5154 72° East 362 417 8,700 2,100 Climbing FlightAware ADS-B (EKCH / CPH)
09:02PM -27.2145 153.5514 72° East 371 427 9,400 2,280 Climbing FlightAware ADS-B (EKCH / CPH)
09:02PM -27.1985 153.6071 72° East 378 435 10,600 2,400 Climbing FlightAware ADS-B (EKCH / CPH)
09:03PM -27.1886 153.6401 71° East 383 441 11,400 2,400 Climbing FlightAware ADS-B (EKCH / CPH)
09:03PM -27.1797 153.6626 66° East 388 447 11,800 2,220 Climbing FlightAware ADS-B (EKCH / CPH)
09:04PM -27.1477 153.7213 66° East 397 457 13,000 2,040 Climbing Aus ATC (RADAR)
09:04PM -27.1270 153.7469 66° East 411 473 13,500 1,980 Climbing FlightAware ADS-B (EKCH / CPH)
09:04PM -27.1104 153.7587 32° Northeast 414 476 13,900 2,400 Climbing FlightAware ADS-B (EKCH / CPH)
09:04PM -27.0584 153.7843 24° Northeast 420 483 15,100 2,460 Climbing FlightAware ADS-B (EKCH / CPH)
09:05PM -27.0034 153.8115 24° Northeast 428 493 16,400 2,880 Climbing FlightAware ADS-B (EKCH / CPH)
09:05PM -26.9516 153.8378 24° Northeast 422 486 18,000 3,060 Climbing FlightAware ADS-B (EKCH / CPH)
09:06PM -26.8976 153.8671 26° Northeast 422 486 19,500 2,700 Climbing FlightAware ADS-B (EKCH / CPH)
09:06PM -26.8455 153.8966 27° Northeast 428 493 20,700 2,160 Climbing FlightAware ADS-B (EKCH / CPH)
09:07PM -26.7886 153.9285 27° Northeast 435 501 21,700 1,860 Climbing FlightAware ADS-B (EKCH / CPH)
09:07PM -26.7417 153.9576 29° Northeast 452 520 22,600 1,680 Climbing FlightAware ADS-B (EKCH / CPH)
09:08PM -26.7091 153.9948 46° Northeast 471 542 23,100 1,560 Climbing FlightAware ADS-B (EKCH / CPH)
09:08PM -26.6762 154.0609 61° Northeast 484 557 23,900 1,620 Climbing FlightAware ADS-B (EKCH / CPH)
09:09PM -26.6333 154.1535 63° Northeast 493 567 25,000 1,500 Climbing FlightAware ADS-B (EKCH / CPH)
09:09PM -26.6039 154.2165 62° Northeast 502 578 25,700 1,200 Climbing FlightAware ADS-B (EKCH / CPH)
09:10PM -26.5703 154.2885 62° Northeast 512 589 26,200 1,260 Climbing FlightAware ADS-B (EKCH / CPH)
09:10PM -26.5377 154.3579 62° Northeast 517 595 27,000 1,500 Climbing FlightAware ADS-B (EKCH / CPH)
09:11PM -26.5034 154.4309 62° Northeast 521 600 27,700 1,260 Climbing FlightAware ADS-B (EKCH / CPH)
09:11PM -26.4729 154.4956 62° Northeast 525 604 28,300 1,500 Climbing FlightAware ADS-B (EKCH / CPH)
09:12PM -26.4253 154.5963 62° Northeast 521 600 29,500 1,500 Climbing FlightAware ADS-B (EKCH / CPH)
09:13PM -26.3799 154.6917 62° Northeast 527 606 30,300 1,080 Climbing FlightAware ADS-B (EKCH / CPH)
09:13PM -26.3460 154.7627 62° Northeast 534 615 30,800 960 Climbing FlightAware ADS-B (EKCH / CPH)
09:14PM -26.2966 154.8666 62° Northeast 540 621 31,500 1,200 Climbing FlightAware ADS-B (EKCH / CPH)
09:14PM -26.2625 154.9379 62° Northeast 541 623 32,200 1,260 Climbing FlightAware ADS-B (EKCH / CPH)
09:15PM -26.2274 155.0109 62° Northeast 540 621 32,800 1,140 Climbing FlightAware ADS-B (EKCH / CPH)
09:16PM -26.1817 155.1062 62° Northeast 543 625 33,500 1,140 Climbing FlightAware ADS-B (EKCH / CPH)
09:17PM -26.0789 155.3250 62° Northeast 535 616 35,300 240 Climbing Aus ATC (RADAR)
09:17PM -26.0760 155.3270 62° Northeast 543 625 34,000 780 Descending FlightAware
09:18PM -26.0432 155.3980 62° Northeast 535 616 35,700 2,820 Climbing Aus ATC (RADAR)
09:18PM -26.0129 155.4592 62° Northeast 537 618 35,900 -2,280 Climbing Aus ATC (RADAR)
09:18PM -26.0160 155.4530 61° Northeast 543 625 34,000 480 Descending FlightAware
09:19PM -25.9703 155.5462 61° Northeast 543 625 36,200  Climbing Aus ATC (RADAR)
09:19PM -25.9680 155.5540 61° Northeast 543 625 34,000 1,020 Descending FlightAware
09:19PM -25.9277 155.6338 61° Northeast 546 628 36,800 4,860 Climbing Aus ATC (RADAR)
09:20PM -25.8858 155.7213 61° Northeast 543 625 37,000 -3,660 Climbing Aus ATC (RADAR)
09:20PM -25.9200 155.6540 61° Northeast 543 625 34,000  Descending FlightAware
09:21PM -25.8254 155.8457 61° Northeast 542 624 37,000  Climbing Aus ATC (RADAR)
09:21PM -25.8710 155.7570 61° Northeast 543 625 34,000  Descending FlightAware
09:21PM -25.7944 155.9070 61° Northeast 541 623 37,000  Climbing Aus ATC (RADAR)
09:22PM -25.8100 155.8850 61° Northeast 543 625 34,000  Descending FlightAware
09:22PM -25.7208 156.0546 61° Northeast 539 620 37,000  Climbing Aus ATC (RADAR)
09:22PM -25.7860 155.9350 61° Northeast 543 625 34,000  Descending FlightAware
09:22PM -25.6897 156.1158 61° Northeast 541 623 37,000 3,960 Climbing Aus ATC (RADAR)
09:23PM -25.6482 156.1864 61° Northeast 537 618 37,000 -4,020 Level Aus ATC (RADAR)
09:23PM -25.7250 156.0610 56° Northeast 543 625 34,000  Descending FlightAware
09:24PM -25.5996 156.2669 56° Northeast 533 613 37,000  Climbing Aus ATC (RADAR)
09:24PM -25.6770 156.1610 56° Northeast 543 625 34,000  Descending FlightAware
09:24PM -25.5388 156.3718 56° Northeast 532 612 37,000  Climbing Aus ATC (RADAR)
09:25PM -25.6280 156.2630 56° Northeast 543 625 34,000  Descending FlightAware
09:25PM -25.4912 156.4530 56° Northeast 532 612 37,000  Climbing Aus ATC (RADAR)
09:25PM -25.6160 156.2890 63° Northeast 543 625 34,000  Descending FlightAware
09:26PM -25.4193 156.5827 63° Northeast 532 612 37,000 3,000 Climbing Aus ATC (RADAR)
09:26PM -25.3975 156.6154 54° Northeast 530 610 37,000 -12,000 Level Aus ATC (RADAR)
09:26PM -25.5560 156.4140 54° Northeast 543 625 34,000  Descending FlightAware
09:27PM -25.3192 156.7385 54° Northeast 527 606 37,000 2,220 Climbing Aus ATC (RADAR)
09:27PM -25.2848 156.7953 56° Northeast 527 606 37,000  Level Aus ATC (RADAR)
09:28PM -25.2502 156.8522 56° Northeast 526 605 37,000  Level Aus ATC (RADAR)
09:28PM -25.1965 156.9430 57° Northeast 526 605 37,000  Level Aus ATC (RADAR)
09:29PM -25.1503 157.0250 58° Northeast 526 605 37,000  Level Aus ATC (RADAR)
09:30PM -25.1027 157.1052 57° Northeast 527 606 37,000  Level Aus ATC (RADAR)
09:30PM -25.0418 157.2087 57° Northeast 527 606 37,000  Level Aus ATC (RADAR)
09:31PM -25.0076 157.2655 56° Northeast 528 608 37,000  Level Aus ATC (RADAR)
09:35PM -24.6860 157.7950 57° Northeast 37,000  Level Aus ATC (Calculated)
09:37PM -24.5475 158.0251 57° Northeast  Level FlightAware Approximate
09:38PM -24.4757 158.1439 56° Northeast  Level FlightAware Approximate
09:39PM -24.4038 158.2626 56° Northeast  Level FlightAware Approximate
09:40PM -24.3318 158.3812 56° Northeast  Level FlightAware Approximate
09:41PM -24.2597 158.4996 56° Northeast  Level FlightAware Approximate
09:41PM -24.1633 158.6577 56° Northeast 37,000  Level Aus ATC (Calculated)
09:43PM -24.0464 158.8485 56° Northeast  Level FlightAware Approximate
09:44PM -23.9739 158.9664 56° Northeast  Level FlightAware Approximate
09:45PM -23.9014 159.0842 56° Northeast  Level FlightAware Approximate
09:46PM -23.8288 159.2018 56° Northeast  Level FlightAware Approximate
09:47PM -23.7561 159.3194 56° Northeast  Level FlightAware Approximate
09:48PM -23.4782 159.4220 176° South 37,000  Level Aus ATC (Calculated)
09:48PM -23.6833 159.4367 56° Northeast  Level FlightAware Approximate
09:49PM -23.5928 159.4884 152° Southeast  Level FlightAware Approximate
09:49PM -23.3229 159.5935 193° South 37,000  Level Aus ATC (Calculated)
09:51PM -23.5272 159.5412 193° South  Level FlightAware Approximate
09:51PM -23.1747 159.7566 45° Northeast 37,000  Level Aus ATC (Calculated)
09:51PM -23.0805 159.8601 45° Northeast 37,000  Level Aus ATC (Calculated)
09:52PM -23.0348 159.9101 215° Southwest 37,000  Level Aus ATC (Calculated)
09:53PM -23.1969 159.7877 210° Southwest  Level FlightAware Approximate
09:54PM -23.2162 159.7908 211° Southwest  Level FlightAware Approximate
09:55PM -23.3272 159.7176 211° Southwest  Level FlightAware Approximate
09:56PM -23.2329 159.8147 43° Northeast  Level Estimated
09:57PM -23.1399 159.9132 44° Northeast  Level FlightAware Approximate
09:58PM -23.0468 160.0115 44° Northeast  Level FlightAware Approximate
09:59PM -22.9536 160.1096 44° Northeast  Level FlightAware Approximate
10:00PM -22.8604 160.2077 44° Northeast  Level FlightAware Approximate
10:01PM -22.7671 160.3056 44° Northeast  Level FlightAware Approximate
10:02PM -22.6737 160.4033 44° Northeast  Level FlightAware Approximate
10:03PM -22.5803 160.5010 44° Northeast  Level FlightAware Approximate
10:04PM -22.4869 160.5985 44° Northeast  Level FlightAware Approximate
10:05PM -22.3933 160.6958 44° Northeast  Level FlightAware Approximate
10:06PM -22.2997 160.7931 44° Northeast  Level FlightAware Approximate
10:06PM -21.6450 161.4100 45° Northeast 37,000  Level Aus ATC (Calculated)
10:07PM -21.5526 161.5081 45° Northeast  Level FlightAware Approximate
10:08PM -21.4602 161.6061 45° Northeast  Level FlightAware Approximate
10:09PM -21.3678 161.7040 45° Northeast  Level FlightAware Approximate
10:10PM -21.2753 161.8017 45° Northeast  Level FlightAware Approximate
10:11PM -21.1827 161.8993 45° Northeast  Level FlightAware Approximate
10:12PM -21.0901 161.9968 44° Northeast  Level FlightAware Approximate
10:13PM -20.9974 162.0941 44° Northeast  Level FlightAware Approximate
10:14PM -20.9047 162.1914 44° Northeast  Level FlightAware Approximate
10:15PM -20.8119 162.2885 44° Northeast  Level FlightAware Approximate
10:16PM -20.7190 162.3855 44° Northeast  Level FlightAware Approximate
10:16PM -20.6505 162.4570 44° Northeast 37,000  Level Aus ATC (Calculated)
10:17PM -20.6262 162.4824 44° Northeast  Level FlightAware Approximate
10:18PM -20.5332 162.5791 44° Northeast  Level FlightAware Approximate
10:19PM -20.4402 162.6758 44° Northeast  Level FlightAware Approximate
10:20PM -20.3471 162.7723 44° Northeast  Level FlightAware Approximate
10:21PM -20.2540 162.8687 44° Northeast  Level FlightAware Approximate
10:22PM -20.1609 162.9650 44° Northeast  Level FlightAware Approximate
10:23PM -20.0676 163.0612 44° Northeast  Level FlightAware Approximate
10:24PM -19.9055 163.2281 44° Northeast  Level FlightAware Approximate
10:25PM -19.8082 163.3194 42° Northeast  Level Estimated
10:26PM -19.7108 163.4106 41° Northeast  Level FlightAware Approximate
10:27PM -19.6134 163.5017 41° Northeast  Level FlightAware Approximate
10:28PM -19.5160 163.5927 41° Northeast  Level FlightAware Approximate
10:29PM -19.4185 163.6836 41° Northeast  Level FlightAware Approximate
10:30PM -19.3209 163.7743 41° Northeast  Level FlightAware Approximate
10:31PM -19.2233 163.8650 41° Northeast  Level FlightAware Approximate
10:32PM -19.1257 163.9555 41° Northeast  Level FlightAware Approximate
10:33PM -19.0280 164.0460 41° Northeast  Level FlightAware Approximate
10:34PM -18.9303 164.1363 41° Northeast  Level FlightAware Approximate
10:35PM -18.8325 164.2265 41° Northeast  Level FlightAware Approximate
10:36PM -18.7347 164.3167 41° Northeast  Level FlightAware Approximate
10:37PM -18.6369 164.4067 41° Northeast  Level FlightAware Approximate
10:38PM -18.5390 164.4966 41° Northeast  Level FlightAware Approximate
10:39PM -18.4410 164.5864 41° Northeast  Level FlightAware Approximate
10:40PM -18.3431 164.6761 41° Northeast  Level FlightAware Approximate
10:41PM -18.2451 164.7657 41° Northeast  Level FlightAware Approximate
10:42PM -18.1470 164.8552 41° Northeast  Level FlightAware Approximate
10:43PM -18.0489 164.9446 41° Northeast  Level FlightAware Approximate
10:44PM -17.9508 165.0340 41° Northeast  Level FlightAware Approximate
10:45PM -17.8526 165.1232 41° Northeast  Level FlightAware Approximate
10:46PM -17.7543 165.2123 41° Northeast  Level FlightAware Approximate
10:47PM -17.6561 165.3013 41° Northeast  Level FlightAware Approximate
10:48PM -17.5578 165.3902 41° Northeast  Level FlightAware Approximate
10:49PM -17.4594 165.4790 41° Northeast  Level FlightAware Approximate
10:50PM -17.3610 165.5677 41° Northeast  Level FlightAware Approximate
10:51PM -17.2626 165.6564 41° Northeast  Level FlightAware Approximate
10:52PM -17.1641 165.7449 41° Northeast  Level FlightAware Approximate
10:53PM -17.0656 165.8333 41° Northeast  Level FlightAware Approximate
10:54PM -16.9671 165.9217 41° Northeast  Level FlightAware Approximate
10:55PM -16.8685 166.0099 41° Northeast  Level FlightAware Approximate
10:56PM -16.7699 166.0981 41° Northeast  Level FlightAware Approximate
10:57PM -16.6712 166.1862 41° Northeast  Level FlightAware Approximate
10:58PM -16.5726 166.2741 41° Northeast  Level FlightAware Approximate
10:59PM -16.4738 166.3620 40° Northeast  Level FlightAware Approximate
11:00PM -16.3751 166.4498 40° Northeast  Level FlightAware Approximate
11:01PM -16.2763 166.5375 40° Northeast  Level FlightAware Approximate
11:02PM -16.1774 166.6252 40° Northeast  Level FlightAware Approximate
11:03PM -16.0786 166.7127 40° Northeast  Level FlightAware Approximate
11:04PM -15.9796 166.8001 40° Northeast  Level FlightAware Approximate
11:05PM -15.8807 166.8875 40° Northeast  Level FlightAware Approximate
11:06PM -15.7817 166.9747 40° Northeast  Level FlightAware Approximate
11:07PM -15.6827 167.0619 40° Northeast  Level FlightAware Approximate
11:08PM -15.5837 167.1490 40° Northeast  Level FlightAware Approximate
11:09PM -15.5013 167.2226 40° Northeast  Level Estimated
11:10PM -15.5013 167.2226 227° Southwest  Level Estimated
11:11PM -15.5013 167.2226 227° Southwest  Level Estimated
11:12PM -15.5013 167.2226 227° Southwest  Level Estimated
11:13PM -15.5013 167.2226 42° Northeast  Level Estimated
11:14PM -15.5013 167.2226 42° Northeast  Level Estimated
11:15PM -15.5013 167.2226 42° Northeast  Level Estimated
11:16PM -15.5013 167.2226 42° Northeast  Level Estimated
11:17PM -15.5013 167.2226 42° Northeast  Level Estimated
11:18PM -15.5013 167.2226 42° Northeast  Level Estimated
11:19PM -15.5013 167.2226 42° Northeast  Level Estimated
11:20PM -15.5013 167.2226 42° Northeast  Level Estimated
11:21PM -15.5013 167.2226 42° Northeast  Level Estimated
11:22PM -15.5013 167.2226 42° Northeast  Level Estimated
11:23PM -15.5013 167.2226 42° Northeast  Level Estimated
11:24PM -15.5013 167.2226 42° Northeast  Level Estimated
11:25PM -15.5013 167.2226 42° Northeast  Level Estimated